createdAt,value
2018-04-19T00:00:39.323Z,99.90
2018-04-19T00:03:08.736Z,99.90
2018-04-19T00:05:38.045Z,99.90
2018-04-19T00:08:07.359Z,99.90
2018-04-19T00:10:36.627Z,99.90
2018-04-19T00:13:05.915Z,99.90
2018-04-19T00:15:35.590Z,99.90
2018-04-19T00:18:05.304Z,99.90
2018-04-19T00:20:35.354Z,99.90
2018-04-19T00:23:05.070Z,99.90
2018-04-19T00:25:34.854Z,99.90
2018-04-19T00:28:04.230Z,99.90
2018-04-19T00:30:33.683Z,99.90
2018-04-19T00:33:03.442Z,99.90
2018-04-19T00:35:33.043Z,99.90
2018-04-19T00:38:02.433Z,99.90
2018-04-19T00:40:32.154Z,99.90
2018-04-19T00:43:01.786Z,99.90
2018-04-19T00:45:31.749Z,99.90
2018-04-19T00:48:01.427Z,99.90
2018-04-19T00:50:31.103Z,99.90
2018-04-19T00:53:05.269Z,99.90
2018-04-19T00:55:34.656Z,99.90
2018-04-19T00:58:04.063Z,99.90
2018-04-19T01:00:33.664Z,99.90
2018-04-19T01:03:03.090Z,99.90
2018-04-19T01:05:33.703Z,99.90
2018-04-19T01:08:03.409Z,99.90
2018-04-19T01:10:32.815Z,99.90
2018-04-19T01:13:02.255Z,99.90
2018-04-19T01:15:31.962Z,99.90
2018-04-19T01:18:02.108Z,99.90
2018-04-19T01:20:31.803Z,99.90
2018-04-19T01:23:01.368Z,99.90
2018-04-19T01:25:31.406Z,99.90
2018-04-19T01:28:01.093Z,99.90
2018-04-19T01:30:30.720Z,99.90
2018-04-19T01:33:01.118Z,99.90
2018-04-19T01:35:35.151Z,99.90
2018-04-19T01:38:05.462Z,99.90
2018-04-19T01:40:35.408Z,99.90
2018-04-19T01:43:04.900Z,99.90
2018-04-19T01:45:34.308Z,99.90
2018-04-19T01:48:04.187Z,99.90
2018-04-19T01:50:34.211Z,99.90
2018-04-19T01:53:03.649Z,99.90
2018-04-19T01:55:34.047Z,99.90
2018-04-19T01:58:03.742Z,99.90
2018-04-19T02:00:33.312Z,99.90
2018-04-19T02:03:03.747Z,99.90
2018-04-19T02:05:33.440Z,99.90
2018-04-19T02:08:02.816Z,99.90
2018-04-19T02:10:33.081Z,99.90
2018-04-19T02:13:02.568Z,99.90
2018-04-19T02:15:32.124Z,99.90
2018-04-19T02:18:02.201Z,99.90
2018-04-19T02:20:31.387Z,99.90
2018-04-19T02:23:00.713Z,99.90
2018-04-19T02:25:35.408Z,99.90
2018-04-19T02:28:04.886Z,99.90
2018-04-19T02:30:34.543Z,99.90
2018-04-19T02:33:04.261Z,99.90
2018-04-19T02:35:33.801Z,99.90
2018-04-19T02:38:03.205Z,99.90
2018-04-19T02:40:33.226Z,99.90
2018-04-19T02:43:05.132Z,99.90
2018-04-19T02:45:35.528Z,99.90
2018-04-19T02:48:07.381Z,99.90
2018-04-19T02:50:37.519Z,99.90
2018-04-19T02:53:08.106Z,99.90
2018-04-19T02:55:38.544Z,99.90
2018-04-19T02:58:08.729Z,99.90
2018-04-19T03:00:38.687Z,99.90
2018-04-19T03:03:08.995Z,99.90
2018-04-19T03:05:38.429Z,99.90
2018-04-19T03:08:08.306Z,99.90
2018-04-19T03:10:37.584Z,99.90
2018-04-19T03:13:07.462Z,99.90
2018-04-19T03:15:37.365Z,99.90
2018-04-19T03:18:06.533Z,99.90
2018-04-19T03:20:35.610Z,99.90
2018-04-19T03:23:04.959Z,99.90
2018-04-19T03:25:34.093Z,99.90
2018-04-19T03:28:04.469Z,99.90
2018-04-19T03:30:34.292Z,99.90
2018-04-19T03:33:04.368Z,99.90
2018-04-19T03:35:33.849Z,99.90
2018-04-19T03:38:04.231Z,99.90
2018-04-19T03:40:34.052Z,99.90
2018-04-19T03:43:03.870Z,99.90
2018-04-19T03:45:35.118Z,99.90
2018-04-19T03:48:04.277Z,99.90
2018-04-19T03:50:34.449Z,99.90
2018-04-19T03:53:04.249Z,99.90
2018-04-19T03:55:33.433Z,99.90
2018-04-19T03:58:03.294Z,99.90
2018-04-19T04:00:41.572Z,99.90
2018-04-19T04:03:11.142Z,99.90
2018-04-19T04:05:40.649Z,99.90
2018-04-19T04:08:10.741Z,99.90
2018-04-19T04:10:40.142Z,99.90
2018-04-19T04:13:09.509Z,99.90
2018-04-19T04:15:38.932Z,99.90
2018-04-19T04:18:13.501Z,99.90
2018-04-19T04:21:06.571Z,99.90
2018-04-19T04:23:53.500Z,99.90
2018-04-19T04:26:23.338Z,99.90
2018-04-19T04:28:57.830Z,99.90
2018-04-19T04:31:27.013Z,99.90
2018-04-19T04:33:56.871Z,99.90
2018-04-19T04:36:26.186Z,99.90
2018-04-19T04:38:56.662Z,99.90
2018-04-19T04:41:27.616Z,99.90
2018-04-19T04:44:04.792Z,99.90
2018-04-19T04:46:35.289Z,99.90
2018-04-19T04:49:05.053Z,99.90
2018-04-19T04:51:38.906Z,99.90
2018-04-19T04:54:14.654Z,99.90
2018-04-19T04:56:44.689Z,99.90
2018-04-19T04:59:15.998Z,99.90
2018-04-19T05:01:46.098Z,99.90
2018-04-19T05:04:15.677Z,99.90
2018-04-19T05:06:45.807Z,99.90
2018-04-19T05:09:15.918Z,99.90
2018-04-19T05:11:45.869Z,99.90
2018-04-19T05:14:16.489Z,99.90
2018-04-19T05:16:46.988Z,99.90
2018-04-19T05:19:16.936Z,99.90
2018-04-19T05:21:48.903Z,99.90
2018-04-19T05:24:38.956Z,99.90
2018-04-19T05:27:09.159Z,99.90
2018-04-19T05:29:38.558Z,99.90
2018-04-19T05:32:08.971Z,99.90
2018-04-19T05:34:40.025Z,99.90
2018-04-19T05:37:11.358Z,99.90
2018-04-19T05:39:40.804Z,99.90
2018-04-19T05:42:17.077Z,99.90
2018-04-19T05:44:51.703Z,99.90
2018-04-19T05:50:01.031Z,99.90
2018-04-19T05:52:31.778Z,99.90
2018-04-19T05:55:02.133Z,99.90
2018-04-19T05:57:31.752Z,99.90
2018-04-19T06:00:01.976Z,99.90
2018-04-19T06:02:31.364Z,99.90
2018-04-19T06:05:00.577Z,99.90
2018-04-19T06:07:40.965Z,99.90
2018-04-19T06:10:37.389Z,99.90
2018-04-19T06:13:08.192Z,99.90
2018-04-19T06:15:38.366Z,99.90
2018-04-19T06:18:07.662Z,99.90
2018-04-19T06:20:39.159Z,99.90
2018-04-19T06:23:18.342Z,99.90
2018-04-19T06:25:48.212Z,99.90
2018-04-19T06:28:19.956Z,99.90
2018-04-19T06:30:51.565Z,98.20
2018-04-19T06:33:42.964Z,90.50
2018-04-19T06:36:14.887Z,90.40
2018-04-19T06:38:58.179Z,82.20
2018-04-19T06:41:30.014Z,77.40
2018-04-19T06:44:00.977Z,73.80
2018-04-19T06:46:53.322Z,73.80
2018-04-19T06:49:23.916Z,76.10
2018-04-19T06:52:18.376Z,76.10
2018-04-19T06:57:51.685Z,65.80
2018-04-19T07:00:21.353Z,65.80
2018-04-19T07:02:51.483Z,62.30
2018-04-19T08:35:59.414Z,48.10
2018-04-19T08:38:31.462Z,46.10
2018-04-19T08:41:01.724Z,52.60
2018-04-19T08:43:40.733Z,59.00
2018-04-19T08:46:13.299Z,62.10
2018-04-19T08:51:47.885Z,71.50
2018-04-19T08:57:13.145Z,59.80
2018-04-19T08:59:42.463Z,64.50
2018-04-19T09:03:42.995Z,65.60
2018-04-19T09:06:20.043Z,63.20
2018-04-19T09:09:09.240Z,71.10
2018-04-19T09:11:40.205Z,65.10
2018-04-19T09:14:28.641Z,65.00
2018-04-19T09:16:59.947Z,68.60
2018-04-19T09:19:30.080Z,70.80
2018-04-19T09:22:03.255Z,72.20
2018-04-19T09:24:43.730Z,70.20
2018-04-19T09:27:17.487Z,68.60
2018-04-19T09:29:55.015Z,63.80
2018-04-19T09:35:11.910Z,66.30
2018-04-19T09:38:19.506Z,66.10
2018-04-19T09:41:05.523Z,61.90
2018-04-19T09:43:38.937Z,70.50
2018-04-19T09:46:29.956Z,65.20
2018-04-19T09:48:59.579Z,65.20
2018-04-19T09:51:30.190Z,67.00
2018-04-19T09:54:02.475Z,65.60
2018-04-19T09:56:40.153Z,65.50
2018-04-19T10:02:07.335Z,64.20
2018-04-19T10:05:11.329Z,66.10
2018-04-19T10:07:57.285Z,64.10
2018-04-19T10:10:28.390Z,62.30
2018-04-19T10:13:00.623Z,64.50
2018-04-19T10:15:30.471Z,64.10
2018-04-19T10:18:00.675Z,63.00
2018-04-19T10:20:32.201Z,62.50
2018-04-19T10:23:02.659Z,60.90
2018-04-19T10:25:35.146Z,61.80
2018-04-19T10:28:18.936Z,61.70
2018-04-19T10:30:57.853Z,59.00
2018-04-19T10:33:29.461Z,59.00
2018-04-19T10:36:01.705Z,59.50
2018-04-19T10:38:32.832Z,59.70
2018-04-19T10:41:09.275Z,61.70
2018-04-19T10:44:02.295Z,61.20
2018-04-19T10:46:33.232Z,61.10
2018-04-19T10:49:15.741Z,61.10
2018-04-19T10:51:46.206Z,60.00
2018-04-19T10:54:17.658Z,62.40
2018-04-19T10:56:49.734Z,61.40
2018-04-19T10:59:21.094Z,63.60
2018-04-19T11:01:50.315Z,63.40
2018-04-19T11:04:24.783Z,64.40
2018-04-19T11:23:47.224Z,61.70
2018-04-19T11:26:21.009Z,59.50
2018-04-19T11:28:53.972Z,61.80
2018-04-19T11:31:26.434Z,62.50
2018-04-19T11:33:56.236Z,62.60
2018-04-19T11:36:28.236Z,58.90
2018-04-19T11:39:04.546Z,58.90
2018-04-19T11:41:38.645Z,57.50
2018-04-19T11:44:18.668Z,59.70
2018-04-19T11:46:48.155Z,60.50
2018-04-19T11:49:17.540Z,59.40
2018-04-19T11:51:48.403Z,58.40
2018-04-19T11:54:19.983Z,58.30
2018-04-19T11:56:53.172Z,57.10
2018-04-19T11:59:25.725Z,56.20
2018-04-19T12:02:04.561Z,57.60
2018-04-19T12:04:40.425Z,57.70
2018-04-19T12:17:03.680Z,56.80
2018-04-19T12:19:33.897Z,58.10
2018-04-19T12:22:15.268Z,57.20
2018-04-19T12:24:49.976Z,57.30
2018-04-19T12:31:01.229Z,56.20
2018-04-19T12:33:35.272Z,55.80
2018-04-19T12:36:17.670Z,56.90
2018-04-19T12:38:55.427Z,55.40
2018-04-19T12:42:04.247Z,56.50
2018-04-19T12:44:43.513Z,56.40
2018-04-19T12:47:15.513Z,56.00
2018-04-19T12:51:03.783Z,56.50
2018-04-19T12:56:38.860Z,57.30
2018-04-19T12:59:19.432Z,59.30
2018-04-19T13:02:01.753Z,58.90
2018-04-19T13:04:37.338Z,59.50
2018-04-19T13:07:12.381Z,59.50
2018-04-19T13:09:49.592Z,60.20
2018-04-19T13:12:51.759Z,59.30
2018-04-19T13:15:24.149Z,59.10
2018-04-19T13:17:57.645Z,58.80
2018-04-19T13:21:19.991Z,55.40
2018-04-19T13:27:06.117Z,58.30
2018-04-19T13:29:38.401Z,58.30
2018-04-19T13:35:55.309Z,59.40
2018-04-19T13:42:04.494Z,59.10
2018-04-19T13:44:36.058Z,58.00
2018-04-19T13:47:06.384Z,58.80
2018-04-19T13:49:39.358Z,58.80
2018-04-19T13:52:12.853Z,59.10
2018-04-19T13:54:43.444Z,58.50
2018-04-19T13:58:22.684Z,60.10
2018-04-19T14:01:15.385Z,59.40
2018-04-19T14:07:04.410Z,59.50
2018-04-19T14:12:46.578Z,58.60
2018-04-19T14:18:43.119Z,60.60
2018-04-19T14:21:29.115Z,59.20
2018-04-19T14:24:03.547Z,59.20
2018-04-19T14:27:46.854Z,60.50
2018-04-19T14:35:10.004Z,59.10
2018-04-19T14:37:43.378Z,59.30
2018-04-19T14:40:15.257Z,59.40
2018-04-19T14:42:45.551Z,59.70
2018-04-19T14:45:15.155Z,59.60
2018-04-19T14:47:44.509Z,59.70
2018-04-19T14:50:20.068Z,58.30
2018-04-19T14:52:52.194Z,58.70
2018-04-19T14:55:23.527Z,59.30
2018-04-19T14:57:54.647Z,58.50
2018-04-19T15:00:26.320Z,57.70
2018-04-19T15:06:27.163Z,59.00
2018-04-19T15:08:59.351Z,58.10
2018-04-19T15:11:32.040Z,57.60
2018-04-19T15:14:13.214Z,58.10
2018-04-19T15:16:44.331Z,57.50
2018-04-19T15:19:18.550Z,57.30
2018-04-19T15:21:49.439Z,58.10
2018-04-19T15:24:36.063Z,57.40
2018-04-19T15:27:22.775Z,57.80
2018-04-19T15:30:10.945Z,57.10
2018-04-19T15:32:45.971Z,57.10
2018-04-19T15:35:35.842Z,57.00
2018-04-19T15:41:30.312Z,56.80
2018-04-19T15:44:02.922Z,56.80
2018-04-19T15:46:51.835Z,57.50
2018-04-19T15:49:58.040Z,56.80
2018-04-19T15:52:28.818Z,56.70
2018-04-19T15:54:59.992Z,56.30
2018-04-19T15:57:29.282Z,56.50
2018-04-19T15:59:59.488Z,56.70
2018-04-19T16:02:30.057Z,56.30
2018-04-19T16:05:02.080Z,56.20
2018-04-19T16:08:08.008Z,56.20
2018-04-19T16:11:09.645Z,56.40
2018-04-19T16:13:55.664Z,56.50
2018-04-19T16:16:25.397Z,56.70
2018-04-19T16:18:55.459Z,56.60
2018-04-19T16:21:25.580Z,56.40
2018-04-19T16:27:28.453Z,56.60
2018-04-19T16:30:44.951Z,56.60
2018-04-19T16:36:39.033Z,56.50
2018-04-19T16:39:11.833Z,56.00
2018-04-19T16:41:42.058Z,56.30
2018-04-19T16:44:11.519Z,56.70
2018-04-19T16:46:43.098Z,57.00
2018-04-19T16:49:19.316Z,56.50
2018-04-19T16:51:50.901Z,57.00
2018-04-19T16:54:20.494Z,57.10
2018-04-19T16:56:49.704Z,56.80
2018-04-19T16:59:34.139Z,57.10
2018-04-19T17:02:04.868Z,56.90
2018-04-19T17:04:55.386Z,56.90
2018-04-19T17:07:24.812Z,57.10
2018-04-19T17:09:55.835Z,57.90
2018-04-19T17:12:27.819Z,57.80
2018-04-19T17:15:01.393Z,57.60
2018-04-19T17:17:36.268Z,57.70
2018-04-19T17:20:08.198Z,58.30
2018-04-19T17:22:39.094Z,59.20
2018-04-19T17:25:09.001Z,59.70
2018-04-19T17:27:43.074Z,59.70
2018-04-19T17:30:22.133Z,60.20
2018-04-19T17:33:10.542Z,60.70
2018-04-19T17:35:51.869Z,60.50
2018-04-19T17:38:24.435Z,61.50
2018-04-19T17:40:54.163Z,62.70
2018-04-19T17:43:24.551Z,64.20
2018-04-19T17:45:55.266Z,64.10
2018-04-19T17:48:30.856Z,63.70
2018-04-19T17:51:02.353Z,67.70
2018-04-19T17:53:32.077Z,67.70
2018-04-19T17:56:02.025Z,66.00
2018-04-19T17:58:32.160Z,67.10
2018-04-19T18:01:01.817Z,66.70
2018-04-19T18:03:34.358Z,66.50
2018-04-19T18:06:04.515Z,68.80
2018-04-19T18:08:39.593Z,68.80
2018-04-19T18:11:12.839Z,67.20
2018-04-19T18:13:42.161Z,68.20
2018-04-19T18:16:13.327Z,70.40
2018-04-19T18:18:43.446Z,70.00
2018-04-19T18:21:21.550Z,72.10
2018-04-19T18:27:18.662Z,73.70
2018-04-19T18:29:48.586Z,73.70
2018-04-19T18:32:18.129Z,74.30
2018-04-19T18:34:57.013Z,74.90
2018-04-19T18:37:27.283Z,77.90
2018-04-19T18:39:57.202Z,77.90
2018-04-19T18:42:29.627Z,79.10
2018-04-19T18:45:02.938Z,80.00
2018-04-19T18:47:32.247Z,80.00
2018-04-19T18:50:02.726Z,83.00
2018-04-19T18:52:33.688Z,86.60
2018-04-19T18:55:03.222Z,86.60
2018-04-19T18:57:42.911Z,87.90
2018-04-19T19:00:12.977Z,91.20
2018-04-19T19:02:45.123Z,91.20
2018-04-19T19:05:15.142Z,90.70
2018-04-19T19:08:01.243Z,91.20
2018-04-19T19:10:31.457Z,93.20
2018-04-19T19:13:00.769Z,93.20
2018-04-19T19:15:34.395Z,92.70
2018-04-19T19:20:14.961Z,93.40
2018-04-19T19:22:44.208Z,94.50
2018-04-19T19:25:16.246Z,96.60
2018-04-19T19:27:45.592Z,97.20
2018-04-19T19:33:04.761Z,97.70
2018-04-19T19:35:34.029Z,98.80
2018-04-19T19:38:03.339Z,99.90
2018-04-19T19:40:33.251Z,99.90
2018-04-19T19:43:05.897Z,99.90
2018-04-19T19:45:36.338Z,99.90
2018-04-19T19:48:05.889Z,99.90
2018-04-19T19:50:37.111Z,99.90
2018-04-19T19:53:07.279Z,99.90
2018-04-19T19:55:37.818Z,99.90
2018-04-19T19:58:07.654Z,99.90
2018-04-19T20:00:38.177Z,99.90
2018-04-19T20:03:08.956Z,99.90
2018-04-19T20:05:39.085Z,99.90
2018-04-19T20:08:08.310Z,99.90
2018-04-19T20:10:38.475Z,99.90
2018-04-19T20:13:08.197Z,99.90
2018-04-19T20:15:38.097Z,99.90
2018-04-19T20:18:07.282Z,99.90
2018-04-19T20:20:39.437Z,99.90
2018-04-19T20:23:08.953Z,99.90
2018-04-19T20:25:38.839Z,99.90
2018-04-19T20:28:08.018Z,99.90
2018-04-19T20:33:15.733Z,99.90
2018-04-19T20:35:45.466Z,99.90
2018-04-19T20:38:14.980Z,99.90
2018-04-19T20:40:44.176Z,99.90
2018-04-19T20:43:14.198Z,99.90
2018-04-19T20:45:43.478Z,99.90
2018-04-19T20:48:12.844Z,99.90
2018-04-19T20:50:43.078Z,99.90
2018-04-19T20:53:13.241Z,99.90
2018-04-19T20:55:42.890Z,99.90
2018-04-19T20:58:12.073Z,99.90
2018-04-19T21:00:41.449Z,99.90
2018-04-19T21:03:10.840Z,99.90
2018-04-19T21:05:40.323Z,99.90
2018-04-19T21:08:09.645Z,99.90
2018-04-19T21:10:39.136Z,99.90
2018-04-19T21:13:09.869Z,99.90
2018-04-19T21:15:39.220Z,99.90
2018-04-19T21:18:09.421Z,99.90
2018-04-19T21:20:40.408Z,99.90
2018-04-19T21:23:09.910Z,99.90
2018-04-19T21:25:39.514Z,99.90
2018-04-19T21:28:08.862Z,99.90
2018-04-19T21:30:38.775Z,99.90
2018-04-19T21:33:11.993Z,99.90
2018-04-19T21:35:42.431Z,99.90
2018-04-19T21:38:11.583Z,99.90
2018-04-19T21:40:40.962Z,99.90
2018-04-19T21:43:10.257Z,99.90
2018-04-19T21:45:39.675Z,99.90
2018-04-19T21:48:09.188Z,99.90
2018-04-19T21:50:38.808Z,99.90
2018-04-19T21:53:08.531Z,99.90
2018-04-19T21:55:39.302Z,99.90
2018-04-19T21:58:09.029Z,99.90
2018-04-19T22:00:42.199Z,99.90
2018-04-19T22:03:14.488Z,99.90
2018-04-19T22:05:43.946Z,99.90
2018-04-19T22:08:14.099Z,99.90
2018-04-19T22:10:44.450Z,99.90
2018-04-19T22:13:13.868Z,99.90
2018-04-19T22:15:43.404Z,99.90
2018-04-19T22:18:12.843Z,99.90
2018-04-19T22:20:41.956Z,99.90
2018-04-19T22:23:11.334Z,99.90
2018-04-19T22:25:41.161Z,99.90
2018-04-19T22:28:10.376Z,99.90
2018-04-19T22:30:40.076Z,99.90
2018-04-19T22:33:10.112Z,99.90
2018-04-19T22:35:39.651Z,99.90
2018-04-19T22:38:08.990Z,99.90
2018-04-19T22:40:38.139Z,99.90
2018-04-19T22:43:07.505Z,99.90
2018-04-19T22:45:37.724Z,99.90
2018-04-19T22:48:07.294Z,99.90
2018-04-19T22:50:36.736Z,99.90
2018-04-19T22:53:06.113Z,99.90
2018-04-19T22:55:36.008Z,99.90
2018-04-19T22:58:05.095Z,99.90
2018-04-19T23:00:34.661Z,99.90
2018-04-19T23:03:04.775Z,99.90
2018-04-19T23:05:34.167Z,99.90
2018-04-19T23:08:03.977Z,99.90
2018-04-19T23:10:34.253Z,99.90
2018-04-19T23:13:03.557Z,99.90
2018-04-19T23:15:33.398Z,99.90
2018-04-19T23:18:02.814Z,99.90
2018-04-19T23:20:32.701Z,99.90
2018-04-19T23:23:02.477Z,99.90
2018-04-19T23:25:31.869Z,99.90
2018-04-19T23:28:01.799Z,99.90
2018-04-19T23:30:31.520Z,99.90
2018-04-19T23:33:01.439Z,99.90
2018-04-19T23:35:31.150Z,99.90
2018-04-19T23:38:00.924Z,99.90
2018-04-19T23:40:36.563Z,99.90
2018-04-19T23:43:05.979Z,99.90
2018-04-19T23:45:36.525Z,99.90
2018-04-19T23:48:06.216Z,99.90
2018-04-19T23:50:36.092Z,99.90
2018-04-19T23:53:05.514Z,99.90
2018-04-19T23:55:34.849Z,99.90
2018-04-19T23:58:04.131Z,99.90
